Observations for LOSSIEMOUTH RAF, United Kingdom (EGQS)

EGQS 190250Z 20010KT 9999 FEW030 08/06 Q0994 BLU
EGQS 190150Z 22012KT CAVOK 08/06 Q0994 BLU  
EGQS 190104Z 19017G46KT 4000 SHRA SQ SCT027CB BKN040 BKN060 11/07 Q0995 GRN
EGQS 190050Z 17012KT 9999 FEW040 SCT070 11/07 Q0993 BLU 
EGQS 182350Z 16008KT CAVOK 11/08 Q0993 BLU  
EGQS 182250Z 18007KT 9999 FEW040 SCT240 10/08 Q0994 BLU 
EGQS 182150Z 21006KT 9999 -SHRA SCT027 BKN060 BKN090 13/10 Q0994 BLU
EGQS 182050Z 19006KT 9999 -SHRA SCT040 BKN060 BKN080 14/11 Q0994 BLU
EGQS 181950Z 16006KT 9999 FEW032 13/11 Q0994 BLU
EGQS 181850Z 24011KT 9999 FEW035 14/10 Q0994 BLU
EGQS 181750Z 24014KT 9999 FEW012 14/10 Q0993 BLU NOSIG  
EGQS 181650Z 24017KT 9999 FEW012 16/11 Q0992 BLU NOSIG  
EGQS 181550Z 17003KT 9999 FEW003 SCT030 15/14 Q0991 RESHRA BLU NOSIG
EGQS 181505Z 01006KT 9000 2500SW SHRA SCT003 BKN007 13/13 Q0992 YLO2 TEMPO 9999NSW BKN007 GRN
EGQS 181524Z 02003KT 9999 FEW002 BKN020 BKN040 13/13 Q0992 RESHRA WHT BECMG FEW020 BKN040 BLU
EGQS 181505Z 01006KT 9000 2500SW SHRA SCT003 BKN007 13/13 Q0992 YLO2 TEMPO 9999 NSW BKN007 GRN  
EGQS 181450Z 03005KT 9999 VCSH BKN003 OVC008 14/13 Q0991 RERA YLO2 TEMPO 3000 DZ YLO2   
EGQS 181406Z 06004KT 9999 RA SCT003 BKN007 14/13 Q0991 YLO2 BECMG BKN007 GRN
EGQS 181406Z 06004KT 9999 RA SCT003 BKN007 14/13 Q0991 YLO2 BECMG BKN007 GRN
EGQS 181350Z 09002KT 5000 RA SCT003 BKN006 OVC007 13/13 Q0991 YLO2 BECMG 9999 NSW BKN007 GRN
EGQS 181309Z 08003KT 3500 RA FEW002 BKN003 OVC012 13/13 Q0992 YLO2 TEMPO 2000 RADZ YLO2 
EGQS 181309Z 08003KT 3500 RA FEW002 BKN003 OVC012 13/13 Q0992 YLO2 TEMPO 2000 RADZ YLO2
EGQS 181250Z 05004KT 6000 -RA FEW002 BKN003 OVC005 13/13 Q0991 YLO2 TEMPO 2000 RADZ BKN003 YLO2 
EGQS 181237Z 04005KT 4000 -DZ FEW002 OVC004 13/13 Q0991 YLO2 TEMPO 2000 DZ SCT003 YLO2  
EGQS 181237Z 04005KT 4000 -DZ FEW002 OVC004 13/13 Q0991 YLO2 TEMPO 2000 DZ SCT003 YLO2
EGQS 181217Z 05006KT 2000 DZ FEW002 BKN003 OVC005 13/13 Q0991 YLO2 NOSIG
EGQS 181217Z 05006KT 2000 DZ FEW002 BKN003 OVC005 13/13 Q0991 YLO2 NOSIG
EGQS 181150Z 04006KT 1200 DZ BKN002 OVC005 13/13 Q0992 AMB TEMPO 2000 -DZ SCT004 YLO2   
EGQS 181050Z 03008KT 1200 -DZ FEW002 SCT003 BKN004 13/13 Q0992 AMB TEMPO 2000 -DZ SCT004 YLO2   
EGQS 181027Z 03009KT 1400 BR FEW003 SCT004 OVC006 13/12 Q0992 AMB TEMPO 2000 BR SCT003 YLO2 
EGQS 181027Z 03009KT 1400 BR FEW003 SCT004 OVC006 13/12 Q0992 AMB TEMPO 2000 BRSCT003 YLO2
EGQS 181019Z 03009KT 2000 BR FEW004 BKN005 OVC007 13/12 Q0992 YLO2 TEMPO SCT003 BKN005 YLO2 
EGQS 181019Z 03009KT 2000 BR FEW004 BKN005 OVC007 13/12 Q0992 YLO2 TEMPO SCT003BKN005 YLO2
EGQS 180950Z 03009KT 5000 -RA FEW003 BKN006 OVC009 13/13 Q0992 YLO1 TEMPO 2000 +RADZ SCT003 BKN005 YLO2 
EGQS 180850Z 03011KT 4000 RADZ FEW004 BKN005 OVC009 13/13 Q0993 YLO1 TEMPO 2000 +RADZ SCT003 BKN005 YLO2
EGQS 180750Z 01004KT 9999 -RA FEW003 SCT006 BKN012 14/14 Q0993 RERA YLO1 TEMPO 2000 +RADZ SCT003 BKN005 YLO2
EGQS 180650Z 34005KT 3500 +RA SCT005 BKN008 OVC013 14/14 Q0993 YLO1 TEMPO 2000 +RADZ SCT003 BKN005 YLO2 
EGQS 180550Z 32003KT 5000 RA FEW018 SCT026 BKN040 15/14 Q0993 WHT TEMPO 2000 +RADZ SCT004 BKN006 YLO2   
EGQS 180450Z 21001KT 9999 SCT040 OVC050 16/14 Q0993 REDZ BLU
EGQS 180350Z 24013KT CAVOK 17/13 Q0993 BLU  
EGQS 180250Z 21007KT 9999 FEW030 OVC080 16/13 Q0994 BLU